sensor_id;sensor_type;location;lat;lon;timestamp;pressure;altitude;pressure_sealevel;temperature;humidity
49297;BME280;35163;48.878;18.040;2024-01-06T00:01:14;97303.22;;;11.69;50.30
49297;BME280;35163;48.878;18.040;2024-01-06T00:03:42;97292.09;;;11.66;50.42
49297;BME280;35163;48.878;18.040;2024-01-06T00:06:15;97296.34;;;11.67;50.56
49297;BME280;35163;48.878;18.040;2024-01-06T00:08:42;97287.84;;;11.65;50.47
49297;BME280;35163;48.878;18.040;2024-01-06T00:11:09;97287.84;;;11.65;50.60
49297;BME280;35163;48.878;18.040;2024-01-06T00:13:36;97289.69;;;11.63;50.46
49297;BME280;35163;48.878;18.040;2024-01-06T00:16:03;97295.53;;;11.67;50.63
49297;BME280;35163;48.878;18.040;2024-01-06T00:18:30;97287.00;;;11.65;50.80
49297;BME280;35163;48.878;18.040;2024-01-06T00:20:57;97291.16;;;11.67;50.88
49297;BME280;35163;48.878;18.040;2024-01-06T00:23:24;97292.88;;;11.69;50.81
49297;BME280;35163;48.878;18.040;2024-01-06T00:25:51;97296.22;;;11.71;51.04
49297;BME280;35163;48.878;18.040;2024-01-06T00:28:17;97294.53;;;11.70;51.19
49297;BME280;35163;48.878;18.040;2024-01-06T00:30:45;97292.00;;;11.68;51.34
49297;BME280;35163;48.878;18.040;2024-01-06T00:33:12;97294.59;;;11.68;51.65
49297;BME280;35163;48.878;18.040;2024-01-06T00:35:40;97283.00;;;11.75;50.95
49297;BME280;35163;48.878;18.040;2024-01-06T00:38:06;97283.84;;;11.76;51.02
49297;BME280;35163;48.878;18.040;2024-01-06T00:40:33;97280.25;;;11.78;51.28
49297;BME280;35163;48.878;18.040;2024-01-06T00:43:00;97286.25;;;11.79;51.20
49297;BME280;35163;48.878;18.040;2024-01-06T00:45:27;97278.50;;;11.79;51.12
49297;BME280;35163;48.878;18.040;2024-01-06T00:47:53;97279.16;;;11.83;50.75
49297;BME280;35163;48.878;18.040;2024-01-06T00:50:20;97271.47;;;11.81;51.13
49297;BME280;35163;48.878;18.040;2024-01-06T00:52:47;97275.72;;;11.82;50.71
49297;BME280;35163;48.878;18.040;2024-01-06T00:55:14;97279.97;;;11.83;50.97
49297;BME280;35163;48.878;18.040;2024-01-06T00:57:41;97272.38;;;11.80;50.42
49297;BME280;35163;48.878;18.040;2024-01-06T01:00:08;97274.16;;;11.79;50.79
49297;BME280;35163;48.878;18.040;2024-01-06T01:02:35;97277.56;;;11.80;50.54
49297;BME280;35163;48.878;18.040;2024-01-06T01:05:05;97274.81;;;11.83;50.63
49297;BME280;35163;48.878;18.040;2024-01-06T01:07:34;97274.00;;;11.83;50.64
49297;BME280;35163;48.878;18.040;2024-01-06T01:10:01;97275.72;;;11.82;50.27
49297;BME280;35163;48.878;18.040;2024-01-06T01:12:28;97268.97;;;11.79;51.07
49297;BME280;35163;48.878;18.040;2024-01-06T01:14:54;97280.16;;;11.80;50.37
49297;BME280;35163;48.878;18.040;2024-01-06T01:17:21;97282.75;;;11.80;50.49
49297;BME280;35163;48.878;18.040;2024-01-06T01:19:48;97270.63;;;11.81;50.49
49297;BME280;35163;48.878;18.040;2024-01-06T01:22:16;97274.06;;;11.81;50.29
49297;BME280;35163;48.878;18.040;2024-01-06T01:24:42;97274.97;;;11.80;50.06
49297;BME280;35163;48.878;18.040;2024-01-06T01:27:09;97276.81;;;11.78;50.00
49297;BME280;35163;48.878;18.040;2024-01-06T01:29:36;97274.31;;;11.76;50.08
49297;BME280;35163;48.878;18.040;2024-01-06T01:32:06;97269.97;;;11.77;50.09
49297;BME280;35163;48.878;18.040;2024-01-06T01:34:33;97271.63;;;11.78;50.41
49297;BME280;35163;48.878;18.040;2024-01-06T01:37:00;97269.88;;;11.78;50.06
49297;BME280;35163;48.878;18.040;2024-01-06T01:39:27;97267.28;;;11.78;50.19
49297;BME280;35163;48.878;18.040;2024-01-06T01:41:53;97262.88;;;11.81;50.17
49297;BME280;35163;48.878;18.040;2024-01-06T01:44:20;97264.69;;;11.78;50.45
49297;BME280;35163;48.878;18.040;2024-01-06T01:46:47;97259.44;;;11.80;50.33
49297;BME280;35163;48.878;18.040;2024-01-06T01:49:14;97260.28;;;11.81;50.24
49297;BME280;35163;48.878;18.040;2024-01-06T01:51:42;97267.13;;;11.82;50.07
49297;BME280;35163;48.878;18.040;2024-01-06T01:54:11;97272.28;;;11.82;50.34
49297;BME280;35163;48.878;18.040;2024-01-06T01:56:39;97268.91;;;11.81;50.64
49297;BME280;35163;48.878;18.040;2024-01-06T01:59:11;97258.63;;;11.79;50.30
49297;BME280;35163;48.878;18.040;2024-01-06T02:01:39;97253.34;;;11.81;50.54
49297;BME280;35163;48.878;18.040;2024-01-06T02:04:08;97254.44;;;11.77;50.49
49297;BME280;35163;48.878;18.040;2024-01-06T02:06:35;97256.34;;;11.73;50.82
49297;BME280;35163;48.878;18.040;2024-01-06T02:09:01;97251.84;;;11.77;50.59
49297;BME280;35163;48.878;18.040;2024-01-06T02:11:29;97251.09;;;11.75;50.65
49297;BME280;35163;48.878;18.040;2024-01-06T02:13:55;97257.19;;;11.74;50.65
49297;BME280;35163;48.878;18.040;2024-01-06T02:16:22;97252.28;;;11.69;50.80
49297;BME280;35163;48.878;18.040;2024-01-06T02:18:49;97263.63;;;11.66;51.07
49297;BME280;35163;48.878;18.040;2024-01-06T02:21:17;97263.44;;;11.70;50.92
49297;BME280;35163;48.878;18.040;2024-01-06T02:23:45;97262.56;;;11.71;51.22
49297;BME280;35163;48.878;18.040;2024-01-06T02:26:11;97255.50;;;11.73;51.27
49297;BME280;35163;48.878;18.040;2024-01-06T02:28:39;97252.09;;;11.72;51.07
49297;BME280;35163;48.878;18.040;2024-01-06T02:31:06;97262.97;;;11.79;51.23
49297;BME280;35163;48.878;18.040;2024-01-06T02:33:33;97257.78;;;11.79;51.42
49297;BME280;35163;48.878;18.040;2024-01-06T02:36:00;97257.88;;;11.77;51.56
49297;BME280;35163;48.878;18.040;2024-01-06T02:38:27;97248.31;;;11.78;51.46
49297;BME280;35163;48.878;18.040;2024-01-06T02:40:53;97238.72;;;11.80;51.16
49297;BME280;35163;48.878;18.040;2024-01-06T02:43:20;97238.81;;;11.78;51.56
49297;BME280;35163;48.878;18.040;2024-01-06T02:45:49;97242.06;;;11.82;51.47
49297;BME280;35163;48.878;18.040;2024-01-06T02:48:16;97259.44;;;11.80;51.21
49297;BME280;35163;48.878;18.040;2024-01-06T02:50:42;97261.22;;;11.79;51.41
49297;BME280;35163;48.878;18.040;2024-01-06T02:53:09;97263.81;;;11.79;51.54
49297;BME280;35163;48.878;18.040;2024-01-06T02:55:36;97261.28;;;11.78;51.88
49297;BME280;35163;48.878;18.040;2024-01-06T02:58:03;97262.19;;;11.77;51.68
49297;BME280;35163;48.878;18.040;2024-01-06T03:00:30;97265.72;;;11.76;52.13
49297;BME280;35163;48.878;18.040;2024-01-06T03:02:57;97262.28;;;11.75;53.24
49297;BME280;35163;48.878;18.040;2024-01-06T03:05:23;97262.28;;;11.75;53.14
49297;BME280;35163;48.878;18.040;2024-01-06T03:07:50;97254.59;;;11.74;53.09
49297;BME280;35163;48.878;18.040;2024-01-06T03:10:17;97257.78;;;11.79;52.78
49297;BME280;35163;48.878;18.040;2024-01-06T03:12:43;97250.00;;;11.79;53.19
49297;BME280;35163;48.878;18.040;2024-01-06T03:15:10;97247.50;;;11.77;53.20
49297;BME280;35163;48.878;18.040;2024-01-06T03:17:38;97248.59;;;11.73;53.63
49297;BME280;35163;48.878;18.040;2024-01-06T03:20:05;97245.91;;;11.75;54.43
49297;BME280;35163;48.878;18.040;2024-01-06T03:22:32;97235.63;;;11.73;54.29
49297;BME280;35163;48.878;18.040;2024-01-06T03:24:59;97231.47;;;11.71;54.40
49297;BME280;35163;48.878;18.040;2024-01-06T03:27:27;97221.25;;;11.67;54.71
49297;BME280;35163;48.878;18.040;2024-01-06T03:29:54;97222.88;;;11.70;54.92
49297;BME280;35163;48.878;18.040;2024-01-06T03:32:21;97200.50;;;11.69;55.15
49297;BME280;35163;48.878;18.040;2024-01-06T03:34:48;97205.00;;;11.65;55.29
49297;BME280;35163;48.878;18.040;2024-01-06T03:37:15;97211.16;;;11.63;55.16
49297;BME280;35163;48.878;18.040;2024-01-06T03:39:41;97200.00;;;11.62;54.94
49297;BME280;35163;48.878;18.040;2024-01-06T03:42:08;97199.81;;;11.65;55.33
49297;BME280;35163;48.878;18.040;2024-01-06T03:44:35;97193.97;;;11.62;55.21
49297;BME280;35163;48.878;18.040;2024-01-06T03:47:02;97202.31;;;11.67;55.85
49297;BME280;35163;48.878;18.040;2024-01-06T03:49:28;97206.91;;;11.62;55.58
49297;BME280;35163;48.878;18.040;2024-01-06T03:51:55;97219.19;;;11.58;56.97
49297;BME280;35163;48.878;18.040;2024-01-06T03:54:22;97219.19;;;11.58;56.76
49297;BME280;35163;48.878;18.040;2024-01-06T03:56:49;97224.38;;;11.58;56.94
49297;BME280;35163;48.878;18.040;2024-01-06T03:59:16;97222.72;;;11.57;57.40
49297;BME280;35163;48.878;18.040;2024-01-06T04:01:43;97221.19;;;11.53;57.89
49297;BME280;35163;48.878;18.040;2024-01-06T04:04:10;97226.38;;;11.53;57.62
49297;BME280;35163;48.878;18.040;2024-01-06T04:06:37;97225.63;;;11.51;57.63
49297;BME280;35163;48.878;18.040;2024-01-06T04:09:03;97228.38;;;11.48;58.21
49297;BME280;35163;48.878;18.040;2024-01-06T04:11:31;97218.03;;;11.48;58.02
49297;BME280;35163;48.878;18.040;2024-01-06T04:13:58;97225.03;;;11.46;58.42
49297;BME280;35163;48.878;18.040;2024-01-06T04:16:28;97214.69;;;11.46;58.22
49297;BME280;35163;48.878;18.040;2024-01-06T04:18:55;97214.00;;;11.42;58.70
49297;BME280;35163;48.878;18.040;2024-01-06T04:21:22;97216.50;;;11.43;58.46
49297;BME280;35163;48.878;18.040;2024-01-06T04:23:49;97219.84;;;11.46;58.25
49297;BME280;35163;48.878;18.040;2024-01-06T04:26:16;97222.63;;;11.42;58.59
49297;BME280;35163;48.878;18.040;2024-01-06T04:28:43;97225.22;;;11.42;58.48
49297;BME280;35163;48.878;18.040;2024-01-06T04:31:09;97232.88;;;11.44;58.32
49297;BME280;35163;48.878;18.040;2024-01-06T04:33:37;97225.22;;;11.42;58.83
49297;BME280;35163;48.878;18.040;2024-01-06T04:36:07;97224.38;;;11.42;58.59
49297;BME280;35163;48.878;18.040;2024-01-06T04:38:33;97220.19;;;11.39;58.83
49297;BME280;35163;48.878;18.040;2024-01-06T04:41:00;97218.38;;;11.41;59.29
49297;BME280;35163;48.878;18.040;2024-01-06T04:43:27;97218.38;;;11.41;59.34
49297;BME280;35163;48.878;18.040;2024-01-06T04:45:54;97228.06;;;11.38;59.57
49297;BME280;35163;48.878;18.040;2024-01-06T04:48:21;97228.31;;;11.33;59.82
49297;BME280;35163;48.878;18.040;2024-01-06T04:50:48;97217.03;;;11.34;59.46
49297;BME280;35163;48.878;18.040;2024-01-06T04:53:14;97207.53;;;11.35;59.80
49297;BME280;35163;48.878;18.040;2024-01-06T04:55:41;97204.34;;;11.29;59.97
49297;BME280;35163;48.878;18.040;2024-01-06T04:58:08;97202.16;;;11.22;59.57
49297;BME280;35163;48.878;18.040;2024-01-06T05:00:35;97211.69;;;11.21;59.58
49297;BME280;35163;48.878;18.040;2024-01-06T05:03:03;97204.81;;;11.20;59.26
49297;BME280;35163;48.878;18.040;2024-01-06T05:05:30;97205.06;;;11.15;59.35
49297;BME280;35163;48.878;18.040;2024-01-06T05:07:57;97202.66;;;11.12;59.98
49297;BME280;35163;48.878;18.040;2024-01-06T05:10:24;97202.81;;;11.09;59.58
49297;BME280;35163;48.878;18.040;2024-01-06T05:12:51;97209.91;;;11.05;60.22
49297;BME280;35163;48.878;18.040;2024-01-06T05:15:18;97203.97;;;11.03;60.18
49297;BME280;35163;48.878;18.040;2024-01-06T05:17:45;97198.03;;;11.01;60.23
49297;BME280;35163;48.878;18.040;2024-01-06T05:20:11;97206.81;;;10.99;60.20
49297;BME280;35163;48.878;18.040;2024-01-06T05:22:38;97206.06;;;10.97;60.38
49297;BME280;35163;48.878;18.040;2024-01-06T05:25:05;97219.97;;;10.94;61.17
49297;BME280;35163;48.878;18.040;2024-01-06T05:27:32;97217.63;;;10.89;60.95
49297;BME280;35163;48.878;18.040;2024-01-06T05:29:59;97222.81;;;10.89;61.46
49297;BME280;35163;48.878;18.040;2024-01-06T05:32:26;97213.50;;;10.85;61.51
49297;BME280;35163;48.878;18.040;2024-01-06T05:34:52;97214.44;;;10.84;61.58
49297;BME280;35163;48.878;18.040;2024-01-06T05:37:19;97222.38;;;10.81;62.02
49297;BME280;35163;48.878;18.040;2024-01-06T05:39:46;97233.03;;;10.75;62.66
49297;BME280;35163;48.878;18.040;2024-01-06T05:42:13;97233.09;;;10.73;62.55
49297;BME280;35163;48.878;18.040;2024-01-06T05:44:41;97221.50;;;10.64;63.50
49297;BME280;35163;48.878;18.040;2024-01-06T05:47:08;97217.13;;;10.65;63.36
49297;BME280;35163;48.878;18.040;2024-01-06T05:49:35;97217.38;;;10.60;63.41
49297;BME280;35163;48.878;18.040;2024-01-06T05:52:02;97224.38;;;10.58;63.91
49297;BME280;35163;48.878;18.040;2024-01-06T05:54:28;97232.19;;;10.56;63.79
49297;BME280;35163;48.878;18.040;2024-01-06T05:56:55;97235.78;;;10.54;64.11
49297;BME280;35163;48.878;18.040;2024-01-06T05:59:22;97231.69;;;10.50;64.23
49297;BME280;35163;48.878;18.040;2024-01-06T06:01:49;97242.00;;;10.50;64.25
49297;BME280;35163;48.878;18.040;2024-01-06T06:04:16;97242.13;;;10.47;64.49
49297;BME280;35163;48.878;18.040;2024-01-06T06:06:42;97248.19;;;10.47;64.97
49297;BME280;35163;48.878;18.040;2024-01-06T06:09:09;97246.78;;;10.40;65.54
49297;BME280;35163;48.878;18.040;2024-01-06T06:11:36;97253.69;;;10.39;65.18
49297;BME280;35163;48.878;18.040;2024-01-06T06:14:03;97249.44;;;10.38;65.46
49297;BME280;35163;48.878;18.040;2024-01-06T06:16:31;97246.84;;;10.38;65.79
49297;BME280;35163;48.878;18.040;2024-01-06T06:18:58;97247.84;;;10.36;65.95
49297;BME280;35163;48.878;18.040;2024-01-06T06:21:25;97250.50;;;10.34;66.21
49297;BME280;35163;48.878;18.040;2024-01-06T06:23:52;97264.25;;;10.35;66.70
49297;BME280;35163;48.878;18.040;2024-01-06T06:26:19;97263.66;;;10.29;66.04
49297;BME280;35163;48.878;18.040;2024-01-06T06:28:45;97261.28;;;10.25;66.77
49297;BME280;35163;48.878;18.040;2024-01-06T06:31:12;97248.53;;;10.21;66.65
49297;BME280;35163;48.878;18.040;2024-01-06T06:33:39;97255.59;;;10.18;67.22
49297;BME280;35163;48.878;18.040;2024-01-06T06:36:06;97259.00;;;10.18;66.73
49297;BME280;35163;48.878;18.040;2024-01-06T06:38:33;97260.84;;;10.16;67.45
49297;BME280;35163;48.878;18.040;2024-01-06T06:41:00;97265.16;;;10.16;67.63
49297;BME280;35163;48.878;18.040;2024-01-06T06:43:27;97266.81;;;10.17;67.38
49297;BME280;35163;48.878;18.040;2024-01-06T06:45:54;97273.78;;;10.15;67.90
49297;BME280;35163;48.878;18.040;2024-01-06T06:48:22;97268.78;;;10.12;67.86
49297;BME280;35163;48.878;18.040;2024-01-06T06:50:49;97279.28;;;10.08;68.11
49297;BME280;35163;48.878;18.040;2024-01-06T06:53:15;97278.31;;;10.11;67.86
49297;BME280;35163;48.878;18.040;2024-01-06T06:55:42;97274.94;;;10.09;68.24
49297;BME280;35163;48.878;18.040;2024-01-06T06:58:09;97274.09;;;10.08;68.92
49297;BME280;35163;48.878;18.040;2024-01-06T07:00:36;97277.44;;;10.11;68.36
49297;BME280;35163;48.878;18.040;2024-01-06T07:03:03;97275.84;;;10.08;69.00
49297;BME280;35163;48.878;18.040;2024-01-06T07:05:30;97280.38;;;10.03;69.17
49297;BME280;35163;48.878;18.040;2024-01-06T07:08:00;97284.66;;;10.04;68.97
49297;BME280;35163;48.878;18.040;2024-01-06T07:10:27;97291.34;;;10.08;68.86
49297;BME280;35163;48.878;18.040;2024-01-06T07:12:54;97287.00;;;10.08;68.86
49297;BME280;35163;48.878;18.040;2024-01-06T07:15:21;97277.44;;;10.11;68.71
49297;BME280;35163;48.878;18.040;2024-01-06T07:17:48;97280.81;;;10.13;68.99
49297;BME280;35163;48.878;18.040;2024-01-06T07:20:16;97278.91;;;10.16;68.74
49297;BME280;35163;48.878;18.040;2024-01-06T07:22:42;97280.56;;;10.17;68.94
49297;BME280;35163;48.878;18.040;2024-01-06T07:25:10;97275.41;;;10.17;68.76
49297;BME280;35163;48.878;18.040;2024-01-06T07:27:37;97273.53;;;10.21;68.66
49297;BME280;35163;48.878;18.040;2024-01-06T07:30:04;97277.84;;;10.20;69.31
49297;BME280;35163;48.878;18.040;2024-01-06T07:32:31;97283.69;;;10.24;68.94
49297;BME280;35163;48.878;18.040;2024-01-06T07:34:58;97273.44;;;10.23;69.08
49297;BME280;35163;48.878;18.040;2024-01-06T07:37:25;97276.03;;;10.23;69.52
49297;BME280;35163;48.878;18.040;2024-01-06T07:39:52;97281.88;;;10.26;69.08
49297;BME280;35163;48.878;18.040;2024-01-06T07:42:19;97281.81;;;10.28;69.36
49297;BME280;35163;48.878;18.040;2024-01-06T07:44:46;97277.63;;;10.25;69.70
49297;BME280;35163;48.878;18.040;2024-01-06T07:47:13;97269.19;;;10.21;69.67
49297;BME280;35163;48.878;18.040;2024-01-06T07:49:41;97270.88;;;10.23;70.01
49297;BME280;35163;48.878;18.040;2024-01-06T07:52:08;97279.53;;;10.21;69.86
49297;BME280;35163;48.878;18.040;2024-01-06T07:54:34;97273.44;;;10.23;69.93
49297;BME280;35163;48.878;18.040;2024-01-06T07:57:01;97284.69;;;10.21;69.66
49297;BME280;35163;48.878;18.040;2024-01-06T07:59:28;97278.75;;;10.19;70.01
49297;BME280;35163;48.878;18.040;2024-01-06T08:01:55;97287.41;;;10.18;70.47
49297;BME280;35163;48.878;18.040;2024-01-06T08:04:22;97284.81;;;10.18;70.02
49297;BME280;35163;48.878;18.040;2024-01-06T08:06:49;97285.59;;;10.20;69.93
49297;BME280;35163;48.878;18.040;2024-01-06T08:09:19;97291.00;;;10.16;70.50
49297;BME280;35163;48.878;18.040;2024-01-06T08:11:45;97285.06;;;10.14;70.61
49297;BME280;35163;48.878;18.040;2024-01-06T08:14:14;97282.41;;;10.15;70.51
49297;BME280;35163;48.878;18.040;2024-01-06T08:16:43;97291.06;;;10.14;70.58
49297;BME280;35163;48.878;18.040;2024-01-06T08:19:10;97293.66;;;10.14;70.33
49297;BME280;35163;48.878;18.040;2024-01-06T08:21:37;97283.47;;;10.11;70.34
49297;BME280;35163;48.878;18.040;2024-01-06T08:24:04;97282.47;;;10.14;70.36
49297;BME280;35163;48.878;18.040;2024-01-06T08:26:31;97291.69;;;10.19;70.87
49297;BME280;35163;48.878;18.040;2024-01-06T08:28:58;97280.13;;;10.27;70.37
49297;BME280;35163;48.878;18.040;2024-01-06T08:31:24;97285.91;;;10.32;70.74
49297;BME280;35163;48.878;18.040;2024-01-06T08:33:51;97289.94;;;10.38;70.58
49297;BME280;35163;48.878;18.040;2024-01-06T08:36:19;97302.63;;;10.42;70.40
49297;BME280;35163;48.878;18.040;2024-01-06T08:38:45;97300.56;;;10.51;70.23
49297;BME280;35163;48.878;18.040;2024-01-06T08:41:12;97297.66;;;10.57;70.50
49297;BME280;35163;48.878;18.040;2024-01-06T08:43:39;97302.16;;;10.53;71.09
49297;BME280;35163;48.878;18.040;2024-01-06T08:46:06;97313.59;;;10.48;71.23
49297;BME280;35163;48.878;18.040;2024-01-06T08:48:33;97313.88;;;10.41;71.47
49297;BME280;35163;48.878;18.040;2024-01-06T08:51:01;97309.66;;;10.40;71.56
49297;BME280;35163;48.878;18.040;2024-01-06T08:53:28;97314.94;;;10.37;71.66
49297;BME280;35163;48.878;18.040;2024-01-06T08:55:55;97322.84;;;10.34;72.16
49297;BME280;35163;48.878;18.040;2024-01-06T08:58:22;97318.75;;;10.30;72.12
49297;BME280;35163;48.878;18.040;2024-01-06T09:00:49;97311.69;;;10.33;72.01
49297;BME280;35163;48.878;18.040;2024-01-06T09:03:17;97316.84;;;10.33;71.38
49297;BME280;35163;48.878;18.040;2024-01-06T09:05:44;97317.50;;;10.56;74.31
49297;BME280;35163;48.878;18.040;2024-01-06T09:08:11;97316.88;;;10.51;72.44
49297;BME280;35163;48.878;18.040;2024-01-06T09:10:37;97308.38;;;10.49;72.13
49297;BME280;35163;48.878;18.040;2024-01-06T09:13:04;97312.84;;;10.45;72.28
49297;BME280;35163;48.878;18.040;2024-01-06T09:15:31;97314.66;;;10.43;72.51
49297;BME280;35163;48.878;18.040;2024-01-06T09:17:58;97317.31;;;10.42;72.48
49297;BME280;35163;48.878;18.040;2024-01-06T09:20:25;97321.38;;;10.48;71.71
49297;BME280;35163;48.878;18.040;2024-01-06T09:22:54;97316.97;;;10.50;71.99
49297;BME280;35163;48.878;18.040;2024-01-06T09:25:20;97304.97;;;10.49;71.82
49297;BME280;35163;48.878;18.040;2024-01-06T09:27:50;97326.41;;;10.51;71.46
49297;BME280;35163;48.878;18.040;2024-01-06T09:30:19;97311.03;;;10.48;72.10
49297;BME280;35163;48.878;18.040;2024-01-06T09:32:47;97304.03;;;10.50;71.71
49297;BME280;35163;48.878;18.040;2024-01-06T09:35:14;97295.56;;;10.46;71.78
49297;BME280;35163;48.878;18.040;2024-01-06T09:37:41;97300.31;;;10.73;82.27
49297;BME280;35163;48.878;18.040;2024-01-06T09:40:11;97303.25;;;11.01;84.97
49297;BME280;35163;48.878;18.040;2024-01-06T09:42:40;97300.16;;;11.28;85.91
49297;BME280;35163;48.878;18.040;2024-01-06T09:45:07;97302.22;;;11.55;85.78
49297;BME280;35163;48.878;18.040;2024-01-06T09:47:35;97301.03;;;11.77;83.86
49297;BME280;35163;48.878;18.040;2024-01-06T09:50:03;97293.19;;;11.95;81.37
49297;BME280;35163;48.878;18.040;2024-01-06T09:52:33;97291.84;;;12.20;80.99
49297;BME280;35163;48.878;18.040;2024-01-06T09:55:02;97292.31;;;12.43;79.33
49297;BME280;35163;48.878;18.040;2024-01-06T09:57:29;97293.66;;;12.64;78.06
49297;BME280;35163;48.878;18.040;2024-01-06T09:59:56;97298.53;;;12.85;76.53
49297;BME280;35163;48.878;18.040;2024-01-06T10:02:23;97306.16;;;13.03;75.31
49297;BME280;35163;48.878;18.040;2024-01-06T10:04:51;97299.84;;;13.22;73.70
49297;BME280;35163;48.878;18.040;2024-01-06T10:07:18;97298.38;;;13.32;71.89
49297;BME280;35163;48.878;18.040;2024-01-06T10:09:45;97287.72;;;13.52;71.54
49297;BME280;35163;48.878;18.040;2024-01-06T10:12:11;97292.69;;;13.69;70.93
49297;BME280;35163;48.878;18.040;2024-01-06T10:14:38;97300.44;;;13.84;70.35
49297;BME280;35163;48.878;18.040;2024-01-06T10:17:07;97292.44;;;14.02;69.25
49297;BME280;35163;48.878;18.040;2024-01-06T10:19:36;97292.28;;;14.18;68.81
49297;BME280;35163;48.878;18.040;2024-01-06T10:22:05;97292.22;;;14.32;67.76
49297;BME280;35163;48.878;18.040;2024-01-06T10:24:32;97277.47;;;14.46;67.30
49297;BME280;35163;48.878;18.040;2024-01-06T10:26:58;97286.97;;;14.60;66.72
49297;BME280;35163;48.878;18.040;2024-01-06T10:29:25;97287.94;;;14.72;65.92
49297;BME280;35163;48.878;18.040;2024-01-06T10:31:54;97288.06;;;14.84;65.50
49297;BME280;35163;48.878;18.040;2024-01-06T10:34:23;97279.75;;;14.91;64.25
49297;BME280;35163;48.878;18.040;2024-01-06T10:36:50;97277.34;;;15.01;64.53
49297;BME280;35163;48.878;18.040;2024-01-06T10:39:21;97267.97;;;15.12;63.59
49297;BME280;35163;48.878;18.040;2024-01-06T10:41:49;97262.22;;;15.19;62.80
49297;BME280;35163;48.878;18.040;2024-01-06T10:44:16;97266.19;;;15.25;62.64
49297;BME280;35163;48.878;18.040;2024-01-06T10:46:44;97257.75;;;15.35;62.52
49297;BME280;35163;48.878;18.040;2024-01-06T10:49:12;97255.22;;;15.46;62.30
49297;BME280;35163;48.878;18.040;2024-01-06T10:51:39;97260.94;;;15.51;62.21
49297;BME280;35163;48.878;18.040;2024-01-06T10:54:08;97256.97;;;15.59;62.32
49297;BME280;35163;48.878;18.040;2024-01-06T10:56:37;97258.91;;;15.68;62.34
49297;BME280;35163;48.878;18.040;2024-01-06T10:59:05;97256.81;;;15.73;61.59
49297;BME280;35163;48.878;18.040;2024-01-06T11:01:34;97257.81;;;15.84;61.28
49297;BME280;35163;48.878;18.040;2024-01-06T11:04:02;97254.34;;;15.83;59.91
49297;BME280;35163;48.878;18.040;2024-01-06T11:06:32;97248.50;;;15.93;59.57
49297;BME280;35163;48.878;18.040;2024-01-06T11:09:13;97252.66;;;15.95;58.98
49297;BME280;35163;48.878;18.040;2024-01-06T11:11:43;97254.97;;;16.00;57.96
49297;BME280;35163;48.878;18.040;2024-01-06T11:14:22;97239.56;;;15.84;55.88
49297;BME280;35163;48.878;18.040;2024-01-06T11:16:52;97236.97;;;15.84;56.19
49297;BME280;35163;48.878;18.040;2024-01-06T11:22:28;97234.19;;;15.74;54.46
49297;BME280;35163;48.878;18.040;2024-01-06T11:25:08;97234.06;;;15.75;56.92
49297;BME280;35163;48.878;18.040;2024-01-06T11:27:38;97223.31;;;15.80;55.75
49297;BME280;35163;48.878;18.040;2024-01-06T11:30:05;97226.38;;;15.74;55.16
49297;BME280;35163;48.878;18.040;2024-01-06T11:32:39;97218.56;;;15.74;56.10
49297;BME280;35163;48.878;18.040;2024-01-06T11:35:10;97216.56;;;15.77;56.83
49297;BME280;35163;48.878;18.040;2024-01-06T11:42:41;97205.34;;;15.88;55.80
49297;BME280;35163;48.878;18.040;2024-01-06T11:45:08;97204.31;;;15.91;57.75
49297;BME280;35163;48.878;18.040;2024-01-06T11:47:36;97201.03;;;16.00;58.30
49297;BME280;35163;48.878;18.040;2024-01-06T11:50:03;97195.81;;;16.00;55.58
49297;BME280;35163;48.878;18.040;2024-01-06T11:52:34;97209.25;;;16.07;56.77
49297;BME280;35163;48.878;18.040;2024-01-06T11:55:01;97199.22;;;16.14;57.11
49297;BME280;35163;48.878;18.040;2024-01-06T11:57:29;97197.31;;;16.16;56.57
49297;BME280;35163;48.878;18.040;2024-01-06T11:59:56;97199.09;;;16.15;56.02
49297;BME280;35163;48.878;18.040;2024-01-06T12:02:22;97194.94;;;16.24;57.05
49297;BME280;35163;48.878;18.040;2024-01-06T12:04:50;97182.63;;;16.15;54.04
49297;BME280;35163;48.878;18.040;2024-01-06T12:07:18;97173.03;;;15.91;53.00
49297;BME280;35163;48.878;18.040;2024-01-06T12:09:46;97175.63;;;15.66;53.90
49297;BME280;35163;48.878;18.040;2024-01-06T12:12:17;97180.63;;;15.70;55.06
49297;BME280;35163;48.878;18.040;2024-01-06T12:14:44;97186.50;;;15.60;54.00
49297;BME280;35163;48.878;18.040;2024-01-06T12:17:14;97185.44;;;15.63;55.46
49297;BME280;35163;48.878;18.040;2024-01-06T12:19:41;97185.66;;;15.35;54.31
49297;BME280;35163;48.878;18.040;2024-01-06T12:22:12;97181.97;;;15.13;55.45
49297;BME280;35163;48.878;18.040;2024-01-06T12:24:40;97178.78;;;14.84;55.69
49297;BME280;35163;48.878;18.040;2024-01-06T12:27:08;97178.25;;;14.65;56.48
49297;BME280;35163;48.878;18.040;2024-01-06T12:29:39;97176.56;;;14.51;56.90
49297;BME280;35163;48.878;18.040;2024-01-06T12:32:07;97175.00;;;14.36;57.23
49297;BME280;35163;48.878;18.040;2024-01-06T12:34:35;97175.00;;;14.23;57.98
49297;BME280;35163;48.878;18.040;2024-01-06T12:37:02;97177.28;;;14.14;58.50
49297;BME280;35163;48.878;18.040;2024-01-06T12:39:30;97171.22;;;14.01;58.57
49297;BME280;35163;48.878;18.040;2024-01-06T12:41:57;97172.66;;;13.92;59.02
49297;BME280;35163;48.878;18.040;2024-01-06T12:44:26;97169.53;;;13.87;59.26
49297;BME280;35163;48.878;18.040;2024-01-06T12:46:58;97170.66;;;13.82;59.36
49297;BME280;35163;48.878;18.040;2024-01-06T12:49:25;97178.53;;;13.81;59.64
49297;BME280;35163;48.878;18.040;2024-01-06T12:51:52;97186.75;;;13.75;60.28
49297;BME280;35163;48.878;18.040;2024-01-06T12:54:20;97188.59;;;13.72;60.17
49297;BME280;35163;48.878;18.040;2024-01-06T12:56:47;97185.34;;;13.69;60.39
49297;BME280;35163;48.878;18.040;2024-01-06T12:59:15;97198.75;;;13.63;60.91